Locust Point, Pennsylvania
Current Conditions -  °F | °C
As of 11:56 PM on Friday 19 Dec 2014 (Local Time) from KCXY Reporting Station
Clear Clear  
Wind Chill: 24°   Ceiling: Unl
Heat Index: 30°   Visibility: 10mi
Dew Point: 20°   Wind: 6mph
Humidity: 66%   Direction: 280°W
Pressure: 30.22"   Gusts: NA
Location:  40.208°N, 77.0098°W
Report Text: KCXY 200456Z AUTO 28005KT 10SM CLR M01/M07 A3022 RMK AO2 SLP239 T10111067 400561017
Loading
Personal Weather Stations






























Interactive Weather Map New forecast layout! Learn more

10-Day Weather Forecast

Advertisements
Track Severe Weather on mobile